UATG/GUW METAR and TAF weather

Enter ICAO airport designator
Station Type Date Time Source
UATG METAR 2020/08/11 01:00 UTC NOAA

UATG 110100Z 34003MPS CAVOK 13/03 Q1009 R32/CLRD70 NOSIG RMK QFE758/1011


Station Type Date Time Source
UATG Decoded METAR 2020/08/11 01:00 UTC NOAA

Station name not available
Aug 10, 2020 - 09:00 PM EDT / 2020.08.11 0100 UTC
Wind: from the NNW (340 degrees) at 7 MPH (6 KT):0
Visibility: greater than 7 mile(s):0
Temperature: 55 F (13 C)
Dew Point: 37 F (3 C)
Relative Humidity: 50%
Pressure (altimeter): 29.80 in. Hg (1009 hPa)
ob: UATG 110100Z 34003MPS CAVOK 13/03 Q1009 R32/CLRD70 NOSIG RMK QFE758/1011
cycle: 1

Station Type Date Time Source
UATG TAF 2020/08/10 18:21 UTC NOAA

TAF UATG 101702Z 1018/1118 31005MPS CAVOK TX28/1109Z TN16/1101Z
BECMG 1104/1106 33011MPS

Example: see airport list